Time;durP1;ratioP1;P1;durP2;ratioP2;P2;SDS_P1;SDS_P2;PMS_P1;PMS_P2;Temp;Humidity;BMP_temperature;BMP_pressure;BME280_temperature;BME280_humidity;BME280_pressure;Samples;Min_cycle;Max_cycle;Signal;HPM_P1;HPM_P2
2023/09/09 00:02:13;;;;;;;112.80;74.85;;;;;;;;;;4978839;28;25064;-72
2023/09/09 00:04:40;;;;;;;124.13;81.05;;;;;;;;;;4973417;28;25106;-72
2023/09/09 00:07:06;;;;;;;124.53;82.45;;;;;;;;;;4975873;28;25108;-71
2023/09/09 00:09:32;;;;;;;134.30;88.85;;;;;;;;;;4977382;28;25062;-72
2023/09/09 00:11:59;;;;;;;139.07;88.30;;;;;;;;;;4982273;28;25066;-72
2023/09/09 00:14:25;;;;;;;135.32;90.53;;;;;;;;;;4978073;28;25099;-72
2023/09/09 00:16:51;;;;;;;140.52;93.20;;;;;;;;;;4980736;28;25075;-72
2023/09/09 00:19:21;;;;;;;157.02;99.50;;;;;;;;;;4984411;28;25081;-75
2023/09/09 00:21:47;;;;;;;146.93;95.32;;;;;;;;;;5018325;28;25066;-73
2023/09/09 00:24:13;;;;;;;141.70;89.35;;;;;;;;;;5006809;28;25093;-73
2023/09/09 00:26:39;;;;;;;154.45;98.13;;;;;;;;;;5000891;28;25081;-74
2023/09/09 00:29:05;;;;;;;164.63;103.70;;;;;;;;;;5004301;28;25066;-73
2023/09/09 00:31:31;;;;;;;174.07;105.68;;;;;;;;;;5015024;28;25074;-72
2023/09/09 00:33:57;;;;;;;169.75;105.82;;;;;;;;;;5014036;28;25062;-75
2023/09/09 00:36:23;;;;;;;177.32;108.15;;;;;;;;;;5005193;28;25057;-73
2023/09/09 00:38:49;;;;;;;183.85;110.78;;;;;;;;;;5004668;28;25115;-74
2023/09/09 00:41:15;;;;;;;165.90;104.40;;;;;;;;;;5004784;28;25071;-73
2023/09/09 00:43:42;;;;;;;167.40;103.82;;;;;;;;;;5008124;28;26192;-74
2023/09/09 00:46:08;;;;;;;171.23;105.63;;;;;;;;;;5008478;28;25059;-72
2023/09/09 00:48:34;;;;;;;186.43;111.05;;;;;;;;;;5005018;28;25056;-72
2023/09/09 00:51:01;;;;;;;192.95;116.00;;;;;;;;;;5014196;28;25068;-74
2023/09/09 00:53:27;;;;;;;200.27;120.70;;;;;;;;;;5019668;28;25066;-71
2023/09/09 00:55:53;;;;;;;200.75;120.00;;;;;;;;;;5005969;28;25063;-73
2023/09/09 00:58:19;;;;;;;185.52;114.30;;;;;;;;;;5003397;28;25053;-73
2023/09/09 01:00:45;;;;;;;192.80;115.57;;;;;;;;;;4995705;28;25083;-74
2023/09/09 01:03:11;;;;;;;191.75;116.93;;;;;;;;;;4999440;28;25045;-72
2023/09/09 01:05:38;;;;;;;212.02;126.10;;;;;;;;;;5007896;28;25153;-73
2023/09/09 01:08:05;;;;;;;213.48;128.32;;;;;;;;;;5003849;28;25091;-71
2023/09/09 01:10:32;;;;;;;209.00;124.07;;;;;;;;;;5002387;28;25065;-73
2023/09/09 01:12:57;;;;;;;218.70;127.20;;;;;;;;;;4993678;28;25110;-73
2023/09/09 01:15:24;;;;;;;234.55;133.95;;;;;;;;;;4995033;28;24975;-73
2023/09/09 01:17:52;;;;;;;228.73;135.55;;;;;;;;;;4991227;28;25064;-74
2023/09/09 01:20:19;;;;;;;234.65;135.15;;;;;;;;;;4994753;28;25171;-72
2023/09/09 01:22:48;;;;;;;244.82;136.25;;;;;;;;;;4992737;28;25058;-75
2023/09/09 01:25:14;;;;;;;230.95;135.90;;;;;;;;;;4994204;28;25104;-73
2023/09/09 01:27:40;;;;;;;242.10;136.25;;;;;;;;;;4994986;28;25129;-73
2023/09/09 01:30:08;;;;;;;245.90;136.05;;;;;;;;;;4987168;28;25054;-71
2023/09/09 01:32:34;;;;;;;242.18;135.05;;;;;;;;;;4986813;28;25124;-74
2023/09/09 01:35:03;;;;;;;235.68;136.93;;;;;;;;;;5005629;28;25196;-72
2023/09/09 01:37:29;;;;;;;233.30;130.63;;;;;;;;;;5006821;28;25073;-72
2023/09/09 01:39:56;;;;;;;215.98;125.00;;;;;;;;;;5004616;28;25081;-74
2023/09/09 01:42:22;;;;;;;226.32;128.10;;;;;;;;;;5003634;28;25075;-75
2023/09/09 01:44:47;;;;;;;216.27;125.00;;;;;;;;;;5004560;28;25057;-72
2023/09/09 01:47:14;;;;;;;232.07;131.95;;;;;;;;;;4994109;28;25168;-73
2023/09/09 01:49:41;;;;;;;247.52;134.98;;;;;;;;;;4997090;28;25053;-72
2023/09/09 01:52:07;;;;;;;234.93;134.70;;;;;;;;;;5000455;28;25094;-73
2023/09/09 01:54:33;;;;;;;241.65;132.73;;;;;;;;;;4999016;28;25116;-73
2023/09/09 01:56:59;;;;;;;229.98;133.77;;;;;;;;;;4993500;28;25078;-73
2023/09/09 01:59:26;;;;;;;232.77;133.77;;;;;;;;;;5000635;28;25054;-73
2023/09/09 02:01:52;;;;;;;235.18;133.68;;;;;;;;;;5000212;28;25069;-73
2023/09/09 02:04:18;;;;;;;234.60;136.32;;;;;;;;;;4997224;28;25121;-73
2023/09/09 02:06:44;;;;;;;242.10;137.07;;;;;;;;;;4996733;28;25140;-73
2023/09/09 02:09:10;;;;;;;249.05;140.43;;;;;;;;;;4993537;28;25082;-73
2023/09/09 02:11:36;;;;;;;273.52;144.48;;;;;;;;;;5004827;28;25071;-74
2023/09/09 02:14:02;;;;;;;279.80;145.63;;;;;;;;;;4993871;28;25070;-73
2023/09/09 02:16:28;;;;;;;261.98;145.50;;;;;;;;;;4997672;28;25091;-73
2023/09/09 02:18:54;;;;;;;260.05;141.10;;;;;;;;;;4999985;28;25139;-75
2023/09/09 02:21:20;;;;;;;252.68;142.35;;;;;;;;;;4998152;28;25046;-74
2023/09/09 02:23:46;;;;;;;258.88;144.20;;;;;;;;;;4993345;28;25150;-77
2023/09/09 02:26:12;;;;;;;263.38;141.68;;;;;;;;;;5001517;28;25138;-74
2023/09/09 02:28:38;;;;;;;258.98;142.82;;;;;;;;;;4996318;28;25085;-73
2023/09/09 02:31:04;;;;;;;275.63;146.80;;;;;;;;;;4996847;28;25070;-73
2023/09/09 02:33:30;;;;;;;274.05;150.20;;;;;;;;;;4997282;28;25059;-71
2023/09/09 02:35:59;;;;;;;269.15;146.60;;;;;;;;;;5008537;28;25163;-74
2023/09/09 02:38:25;;;;;;;268.92;146.45;;;;;;;;;;5014962;28;25076;-73
2023/09/09 02:40:52;;;;;;;262.95;141.80;;;;;;;;;;5011733;28;25095;-72
2023/09/09 02:43:18;;;;;;;254.70;143.43;;;;;;;;;;4998139;28;25079;-75
2023/09/09 02:45:44;;;;;;;258.27;141.63;;;;;;;;;;5004891;28;25070;-73
2023/09/09 02:48:10;;;;;;;261.42;146.18;;;;;;;;;;4997799;28;25114;-75
2023/09/09 02:50:36;;;;;;;291.70;153.32;;;;;;;;;;4992643;28;25102;-73
2023/09/09 02:53:02;;;;;;;282.77;150.02;;;;;;;;;;4993216;28;25079;-72
2023/09/09 02:55:28;;;;;;;271.67;148.05;;;;;;;;;;5000856;28;25092;-73
2023/09/09 02:57:54;;;;;;;259.15;141.68;;;;;;;;;;4993444;28;25091;-72
2023/09/09 03:00:20;;;;;;;254.85;142.40;;;;;;;;;;4992916;28;25091;-73
2023/09/09 03:02:47;;;;;;;244.32;141.77;;;;;;;;;;4996659;28;25075;-76
2023/09/09 03:05:13;;;;;;;242.35;140.07;;;;;;;;;;4998596;28;25049;-73
2023/09/09 03:07:39;;;;;;;246.23;137.00;;;;;;;;;;4995520;28;25060;-73
2023/09/09 03:10:06;;;;;;;230.25;133.43;;;;;;;;;;4996422;28;25087;-73
2023/09/09 03:12:31;;;;;;;234.00;134.38;;;;;;;;;;4997244;28;25048;-73
2023/09/09 03:14:58;;;;;;;232.18;131.43;;;;;;;;;;4993511;28;25058;-74
2023/09/09 03:17:24;;;;;;;216.57;130.10;;;;;;;;;;4996385;28;25072;-74
2023/09/09 03:19:50;;;;;;;217.93;129.18;;;;;;;;;;4996870;28;25070;-74
2023/09/09 03:22:16;;;;;;;211.32;126.65;;;;;;;;;;4996020;28;25105;-74
2023/09/09 03:24:42;;;;;;;214.77;130.18;;;;;;;;;;4992124;28;25087;-74
2023/09/09 03:27:08;;;;;;;230.80;130.55;;;;;;;;;;4995951;28;25081;-72
2023/09/09 03:29:33;;;;;;;207.25;123.80;;;;;;;;;;4991922;28;25071;-74
2023/09/09 03:31:59;;;;;;;211.75;126.18;;;;;;;;;;4987239;28;25095;-72
2023/09/09 03:34:25;;;;;;;224.35;127.80;;;;;;;;;;4991306;28;25053;-74
2023/09/09 03:36:51;;;;;;;205.45;123.88;;;;;;;;;;4995351;28;25084;-72
2023/09/09 03:39:17;;;;;;;206.93;122.72;;;;;;;;;;4997606;28;25072;-75
2023/09/09 03:41:43;;;;;;;214.00;124.45;;;;;;;;;;4994306;28;25069;-73
2023/09/09 03:44:09;;;;;;;213.02;126.15;;;;;;;;;;4996967;28;25076;-72
2023/09/09 03:46:35;;;;;;;206.35;122.45;;;;;;;;;;5000811;28;25080;-72
2023/09/09 03:49:02;;;;;;;194.48;118.32;;;;;;;;;;4998961;28;25083;-74
2023/09/09 03:51:28;;;;;;;203.95;118.80;;;;;;;;;;4991278;28;25083;-73
2023/09/09 03:53:54;;;;;;;198.85;115.50;;;;;;;;;;4992731;28;25122;-72
2023/09/09 03:56:20;;;;;;;183.30;110.28;;;;;;;;;;5003597;28;25070;-74
2023/09/09 03:58:46;;;;;;;185.45;116.80;;;;;;;;;;5000865;28;25070;-75
2023/09/09 04:01:13;;;;;;;186.52;112.07;;;;;;;;;;5005161;28;25075;-72
2023/09/09 04:03:39;;;;;;;180.75;109.50;;;;;;;;;;4999140;28;25136;-74
2023/09/09 04:06:06;;;;;;;179.05;110.45;;;;;;;;;;5005536;28;25066;-72
2023/09/09 04:08:33;;;;;;;184.82;111.90;;;;;;;;;;4990801;28;25141;-74
2023/09/09 04:10:59;;;;;;;184.10;108.53;;;;;;;;;;4993013;28;25077;-72
2023/09/09 04:13:25;;;;;;;181.70;108.88;;;;;;;;;;4998708;28;25077;-74
2023/09/09 04:15:55;;;;;;;191.40;113.35;;;;;;;;;;4999503;28;25094;-70
2023/09/09 04:18:21;;;;;;;179.55;111.18;;;;;;;;;;4998943;28;25089;-73
2023/09/09 04:20:47;;;;;;;195.90;111.68;;;;;;;;;;5001683;28;25068;-74
2023/09/09 04:23:13;;;;;;;175.55;107.28;;;;;;;;;;4996889;28;25110;-74
2023/09/09 04:25:39;;;;;;;168.57;103.88;;;;;;;;;;4992268;28;25125;-72
2023/09/09 04:28:06;;;;;;;176.10;104.53;;;;;;;;;;5003504;28;25060;-70
2023/09/09 04:30:32;;;;;;;159.00;99.63;;;;;;;;;;4997706;28;25071;-74
2023/09/09 04:32:58;;;;;;;161.48;98.90;;;;;;;;;;4997647;28;25134;-72
2023/09/09 04:35:24;;;;;;;150.88;94.35;;;;;;;;;;4994627;28;25074;-73
2023/09/09 04:37:50;;;;;;;149.77;94.38;;;;;;;;;;4994748;28;25081;-72
2023/09/09 04:40:16;;;;;;;146.40;92.93;;;;;;;;;;4993433;28;25121;-74
2023/09/09 04:42:42;;;;;;;144.75;90.57;;;;;;;;;;4999040;28;25063;-73
2023/09/09 04:45:09;;;;;;;138.05;88.95;;;;;;;;;;5001334;28;25065;-75
2023/09/09 04:47:35;;;;;;;139.82;88.15;;;;;;;;;;4990857;28;25140;-72
2023/09/09 04:50:02;;;;;;;138.82;87.47;;;;;;;;;;4999554;28;25073;-73
2023/09/09 04:52:28;;;;;;;139.10;86.25;;;;;;;;;;4999326;28;25072;-73
2023/09/09 04:54:54;;;;;;;125.97;81.50;;;;;;;;;;4995822;28;25072;-75
2023/09/09 04:57:20;;;;;;;134.40;81.60;;;;;;;;;;4999733;28;25108;-73
2023/09/09 04:59:46;;;;;;;126.75;79.47;;;;;;;;;;4993036;28;25070;-76
2023/09/09 05:02:13;;;;;;;128.85;77.60;;;;;;;;;;4991351;28;25063;-74
2023/09/09 05:04:39;;;;;;;119.28;76.70;;;;;;;;;;4991701;28;25072;-74
2023/09/09 05:07:05;;;;;;;115.45;74.15;;;;;;;;;;4985100;28;25068;-73
2023/09/09 05:09:31;;;;;;;111.30;71.97;;;;;;;;;;4987894;28;25065;-73
2023/09/09 05:11:57;;;;;;;110.47;70.45;;;;;;;;;;4993089;28;25048;-73
2023/09/09 05:14:23;;;;;;;107.93;69.50;;;;;;;;;;4988022;28;25094;-73
2023/09/09 05:16:49;;;;;;;110.22;69.65;;;;;;;;;;4998878;28;25069;-74
2023/09/09 05:19:15;;;;;;;111.45;69.22;;;;;;;;;;4995737;28;25104;-73
2023/09/09 05:21:41;;;;;;;111.18;68.38;;;;;;;;;;4990203;28;25048;-76
2023/09/09 05:24:07;;;;;;;114.57;69.05;;;;;;;;;;4993444;28;25064;-73
2023/09/09 05:26:33;;;;;;;108.63;66.40;;;;;;;;;;4994358;28;25078;-74
2023/09/09 05:29:01;;;;;;;111.20;66.93;;;;;;;;;;4998191;28;25056;-74
2023/09/09 05:31:27;;;;;;;112.50;67.78;;;;;;;;;;4996299;28;25059;-74
2023/09/09 05:33:53;;;;;;;104.10;63.13;;;;;;;;;;4990082;28;25159;-75
2023/09/09 05:36:19;;;;;;;97.57;60.65;;;;;;;;;;4995266;28;25108;-75
2023/09/09 05:38:45;;;;;;;108.20;59.42;;;;;;;;;;4992331;28;25074;-74
2023/09/09 05:41:11;;;;;;;106.80;61.10;;;;;;;;;;4985697;28;25069;-74
2023/09/09 05:43:37;;;;;;;134.02;63.92;;;;;;;;;;4998994;28;25067;-74
2023/09/09 05:46:03;;;;;;;147.35;63.22;;;;;;;;;;4993877;28;25098;-74
2023/09/09 05:48:30;;;;;;;155.23;62.83;;;;;;;;;;4996055;28;25052;-74
2023/09/09 05:50:56;;;;;;;133.27;59.00;;;;;;;;;;4995606;28;25062;-74
2023/09/09 05:53:22;;;;;;;145.02;60.70;;;;;;;;;;4999702;28;25097;-74
2023/09/09 05:55:48;;;;;;;160.82;64.80;;;;;;;;;;4995742;28;25101;-74
2023/09/09 05:58:14;;;;;;;169.90;66.78;;;;;;;;;;5000699;28;25176;-74
2023/09/09 06:00:40;;;;;;;171.77;68.90;;;;;;;;;;5001433;28;25097;-73
2023/09/09 06:03:06;;;;;;;138.35;62.78;;;;;;;;;;5003973;28;25082;-74
2023/09/09 06:05:32;;;;;;;139.63;62.25;;;;;;;;;;4997946;28;25061;-73
2023/09/09 06:07:58;;;;;;;133.68;60.47;;;;;;;;;;4995033;28;25095;-72
2023/09/09 06:10:25;;;;;;;131.23;59.35;;;;;;;;;;4998368;28;25094;-73
2023/09/09 06:12:51;;;;;;;136.93;62.97;;;;;;;;;;4989725;28;25090;-74
2023/09/09 06:15:17;;;;;;;141.05;65.45;;;;;;;;;;4990001;28;25109;-74
2023/09/09 06:17:43;;;;;;;141.63;66.15;;;;;;;;;;4996047;28;25050;-75
2023/09/09 06:20:09;;;;;;;137.50;64.55;;;;;;;;;;4995412;28;25085;-74
2023/09/09 06:22:36;;;;;;;130.43;60.55;;;;;;;;;;4988663;28;25104;-75
2023/09/09 06:25:02;;;;;;;132.50;62.25;;;;;;;;;;4996896;28;25062;-75
2023/09/09 06:27:28;;;;;;;126.97;60.92;;;;;;;;;;4997123;28;25080;-71
2023/09/09 06:29:54;;;;;;;126.55;61.67;;;;;;;;;;4998423;28;25120;-73
2023/09/09 06:32:20;;;;;;;129.45;62.20;;;;;;;;;;4993894;28;25054;-74
2023/09/09 06:34:46;;;;;;;129.75;63.35;;;;;;;;;;5001192;28;25060;-73
2023/09/09 06:37:11;;;;;;;125.47;63.70;;;;;;;;;;5007352;28;25066;-74
2023/09/09 06:39:38;;;;;;;135.27;64.40;;;;;;;;;;4994303;28;25085;-74
2023/09/09 06:42:04;;;;;;;127.13;66.15;;;;;;;;;;4990587;28;25070;-74
2023/09/09 06:44:30;;;;;;;130.57;66.43;;;;;;;;;;4993853;28;25085;-75
2023/09/09 06:46:55;;;;;;;129.52;67.00;;;;;;;;;;4992505;28;25060;-75
2023/09/09 06:49:21;;;;;;;127.35;63.20;;;;;;;;;;4995871;28;25085;-75
2023/09/09 06:51:47;;;;;;;127.45;62.58;;;;;;;;;;4978207;28;25056;-77
2023/09/09 06:54:13;;;;;;;123.45;60.42;;;;;;;;;;4965779;28;25094;-76
2023/09/09 06:56:40;;;;;;;120.70;61.47;;;;;;;;;;4971865;28;25155;-75
2023/09/09 06:59:07;;;;;;;119.82;62.40;;;;;;;;;;4965812;28;25112;-74
2023/09/09 07:01:33;;;;;;;124.57;61.60;;;;;;;;;;4979259;28;25066;-75
2023/09/09 07:03:59;;;;;;;111.90;62.08;;;;;;;;;;4967711;28;25084;-73
2023/09/09 07:06:25;;;;;;;122.80;65.65;;;;;;;;;;4973432;28;25060;-74
2023/09/09 07:08:52;;;;;;;116.57;62.03;;;;;;;;;;4969562;28;25069;-75
2023/09/09 07:11:18;;;;;;;110.45;65.05;;;;;;;;;;4975275;28;25057;-74
2023/09/09 07:13:44;;;;;;;112.13;64.35;;;;;;;;;;4965485;28;25067;-74
2023/09/09 07:16:10;;;;;;;113.80;65.25;;;;;;;;;;4968286;28;25067;-74
2023/09/09 07:18:36;;;;;;;112.10;65.10;;;;;;;;;;4970040;28;25078;-73
2023/09/09 07:21:02;;;;;;;114.18;62.72;;;;;;;;;;4966890;28;25061;-75
2023/09/09 07:23:28;;;;;;;105.40;60.05;;;;;;;;;;4975029;28;25047;-74
2023/09/09 07:25:54;;;;;;;113.25;62.15;;;;;;;;;;4968303;28;25143;-74
2023/09/09 07:28:23;;;;;;;106.28;62.65;;;;;;;;;;4971882;28;25120;-74
2023/09/09 07:30:48;;;;;;;100.40;60.13;;;;;;;;;;4992114;28;25085;-73
2023/09/09 07:33:15;;;;;;;98.03;60.08;;;;;;;;;;4995107;28;25100;-74
2023/09/09 07:35:40;;;;;;;99.60;59.60;;;;;;;;;;5000720;28;25082;-74
2023/09/09 07:38:07;;;;;;;82.28;55.10;;;;;;;;;;4999100;28;25056;-73
2023/09/09 07:40:33;;;;;;;96.47;60.63;;;;;;;;;;4995927;28;25075;-73
2023/09/09 07:42:59;;;;;;;89.35;58.13;;;;;;;;;;4997647;28;25078;-73
2023/09/09 07:45:26;;;;;;;96.93;59.97;;;;;;;;;;4999209;28;25054;-74
2023/09/09 07:47:52;;;;;;;85.80;56.85;;;;;;;;;;4996378;28;25061;-74
2023/09/09 07:50:18;;;;;;;90.20;61.30;;;;;;;;;;4995792;28;25052;-75
2023/09/09 07:52:44;;;;;;;95.32;62.20;;;;;;;;;;4993171;28;25068;-75
2023/09/09 07:55:10;;;;;;;93.78;61.17;;;;;;;;;;4993412;28;25101;-74
2023/09/09 07:57:36;;;;;;;92.78;59.17;;;;;;;;;;4987074;28;25041;-73
2023/09/09 08:00:03;;;;;;;81.43;54.92;;;;;;;;;;4984315;28;25057;-74
2023/09/09 08:02:30;;;;;;;83.53;58.92;;;;;;;;;;4997303;28;25077;-71
2023/09/09 08:04:56;;;;;;;80.15;55.55;;;;;;;;;;4989686;28;25057;-73
2023/09/09 08:07:22;;;;;;;77.65;54.45;;;;;;;;;;4992782;28;25080;-75
2023/09/09 08:09:49;;;;;;;73.70;51.70;;;;;;;;;;4991757;28;25071;-76
2023/09/09 08:12:15;;;;;;;67.22;48.72;;;;;;;;;;4995298;28;25062;-72
2023/09/09 08:14:44;;;;;;;72.60;49.47;;;;;;;;;;5000505;28;25060;-71
2023/09/09 08:17:10;;;;;;;45.83;35.35;;;;;;;;;;5003528;28;25077;-74
2023/09/09 08:19:36;;;;;;;55.65;39.03;;;;;;;;;;4995782;28;25078;-75
2023/09/09 08:22:02;;;;;;;46.97;36.78;;;;;;;;;;4994131;28;25059;-71
2023/09/09 08:24:28;;;;;;;53.38;36.75;;;;;;;;;;4990981;28;25095;-72
2023/09/09 08:26:54;;;;;;;47.80;35.95;;;;;;;;;;4992921;28;25079;-72
2023/09/09 08:29:20;;;;;;;53.40;37.25;;;;;;;;;;4986830;28;25050;-75
2023/09/09 08:31:50;;;;;;;52.88;39.17;;;;;;;;;;4989359;28;25067;-75
2023/09/09 08:34:16;;;;;;;54.72;38.60;;;;;;;;;;4989158;28;25160;-72
2023/09/09 08:36:42;;;;;;;48.33;33.65;;;;;;;;;;4994110;28;25159;-74
2023/09/09 08:39:11;;;;;;;44.10;30.48;;;;;;;;;;4989685;28;25075;-74
2023/09/09 08:41:43;;;;;;;32.25;24.98;;;;;;;;;;4991699;28;25078;-75
2023/09/09 08:44:26;;;;;;;34.13;24.42;;;;;;;;;;4987800;28;25060;-75
2023/09/09 08:46:53;;;;;;;29.73;23.27;;;;;;;;;;4997541;28;25085;-76
2023/09/09 08:49:22;;;;;;;45.47;31.65;;;;;;;;;;4993028;28;25058;-75
2023/09/09 08:51:49;;;;;;;32.42;26.88;;;;;;;;;;4993622;28;25060;-75
2023/09/09 08:54:16;;;;;;;44.03;31.75;;;;;;;;;;4989171;28;25059;-75
2023/09/09 08:56:42;;;;;;;40.22;29.08;;;;;;;;;;4989838;28;25142;-74
2023/09/09 08:59:08;;;;;;;41.17;30.60;;;;;;;;;;4996255;28;25068;-74
2023/09/09 09:01:35;;;;;;;43.97;31.40;;;;;;;;;;4991359;28;25078;-74
2023/09/09 09:04:01;;;;;;;38.83;29.60;;;;;;;;;;4997672;28;25156;-74
2023/09/09 09:06:27;;;;;;;38.20;28.35;;;;;;;;;;4993892;28;25078;-73
2023/09/09 09:08:53;;;;;;;32.47;25.05;;;;;;;;;;4993138;28;25060;-74
2023/09/09 09:11:21;;;;;;;32.90;24.90;;;;;;;;;;4991516;28;25073;-71
2023/09/09 09:13:47;;;;;;;31.95;25.00;;;;;;;;;;4991059;28;25062;-75
2023/09/09 09:16:14;;;;;;;28.23;22.77;;;;;;;;;;4986026;28;25063;-75
2023/09/09 09:18:40;;;;;;;32.67;22.52;;;;;;;;;;4996300;28;25094;-73
2023/09/09 09:21:06;;;;;;;31.52;22.60;;;;;;;;;;4991865;28;25097;-74
2023/09/09 09:23:32;;;;;;;30.52;22.95;;;;;;;;;;4984291;28;25078;-73
2023/09/09 09:25:58;;;;;;;32.22;24.70;;;;;;;;;;4989749;28;25077;-74
2023/09/09 09:28:28;;;;;;;28.42;22.13;;;;;;;;;;4990554;28;25100;-72
2023/09/09 09:30:53;;;;;;;28.42;21.08;;;;;;;;;;4991718;28;25090;-73
2023/09/09 09:33:30;;;;;;;30.17;21.70;;;;;;;;;;4989584;28;25067;-75
2023/09/09 09:35:59;;;;;;;24.52;20.30;;;;;;;;;;4987789;28;25052;-75
2023/09/09 09:38:25;;;;;;;32.00;22.27;;;;;;;;;;4985988;28;25074;-71
2023/09/09 09:40:59;;;;;;;29.20;23.23;;;;;;;;;;4984508;28;25093;-76
2023/09/09 09:43:25;;;;;;;27.98;21.40;;;;;;;;;;4987539;28;25058;-74
2023/09/09 09:45:51;;;;;;;26.05;20.73;;;;;;;;;;4990523;28;25061;-75
2023/09/09 09:48:26;;;;;;;26.58;20.52;;;;;;;;;;4978048;28;25083;-73
2023/09/09 09:50:53;;;;;;;24.52;18.23;;;;;;;;;;4983405;28;25103;-74
2023/09/09 09:53:19;;;;;;;25.40;19.42;;;;;;;;;;4980102;28;25150;-75
2023/09/09 09:55:46;;;;;;;23.58;19.92;;;;;;;;;;4984315;28;25086;-74
2023/09/09 09:58:13;;;;;;;21.42;17.98;;;;;;;;;;4997782;28;25111;-74
2023/09/09 10:00:40;;;;;;;21.23;16.20;;;;;;;;;;4986995;28;25064;-73
2023/09/09 10:03:07;;;;;;;20.08;17.25;;;;;;;;;;4987693;28;25078;-73
2023/09/09 10:05:34;;;;;;;20.23;15.77;;;;;;;;;;4988112;28;25066;-77
2023/09/09 10:08:17;;;;;;;28.75;20.67;;;;;;;;;;4982282;28;25075;-75
2023/09/09 10:10:52;;;;;;;29.92;19.85;;;;;;;;;;4983593;28;25072;-75
2023/09/09 10:13:23;;;;;;;23.90;17.77;;;;;;;;;;4992794;28;25082;-76
2023/09/09 10:15:49;;;;;;;25.08;20.30;;;;;;;;;;4992863;28;25150;-75
2023/09/09 10:18:15;;;;;;;27.20;21.05;;;;;;;;;;4984172;28;25059;-75
2023/09/09 10:20:41;;;;;;;27.90;23.10;;;;;;;;;;4988355;28;25067;-73
2023/09/09 10:23:08;;;;;;;26.50;21.80;;;;;;;;;;4986568;28;25072;-72
2023/09/09 10:25:34;;;;;;;25.88;20.50;;;;;;;;;;4995120;28;25083;-73
2023/09/09 10:28:01;;;;;;;24.23;19.55;;;;;;;;;;4998220;28;25067;-74
2023/09/09 10:30:28;;;;;;;27.73;19.48;;;;;;;;;;4992325;28;25086;-73
2023/09/09 10:32:55;;;;;;;27.40;20.63;;;;;;;;;;4995416;28;25084;-74
2023/09/09 10:35:22;;;;;;;23.75;19.23;;;;;;;;;;4992082;28;25064;-74
2023/09/09 10:37:50;;;;;;;26.92;19.27;;;;;;;;;;4995382;28;25053;-73
2023/09/09 10:40:17;;;;;;;24.27;18.17;;;;;;;;;;4993373;28;25057;-76
2023/09/09 10:42:44;;;;;;;24.33;18.70;;;;;;;;;;4994281;28;25085;-76
2023/09/09 10:45:23;;;;;;;23.73;18.35;;;;;;;;;;4990909;28;25088;-73
2023/09/09 10:48:03;;;;;;;22.73;17.25;;;;;;;;;;4996056;28;25123;-74
2023/09/09 10:50:41;;;;;;;22.08;17.77;;;;;;;;;;4989515;28;25102;-75
2023/09/09 10:53:23;;;;;;;20.80;17.83;;;;;;;;;;4986009;28;25056;-72
2023/09/09 10:56:01;;;;;;;24.23;16.00;;;;;;;;;;4983806;28;25139;-72
2023/09/09 10:58:34;;;;;;;23.60;18.88;;;;;;;;;;4989064;28;25078;-73
2023/09/09 11:01:00;;;;;;;23.98;16.48;;;;;;;;;;4990488;28;25051;-74
2023/09/09 11:03:55;;;;;;;23.13;15.60;;;;;;;;;;5002524;28;25074;-73
2023/09/09 11:06:28;;;;;;;21.17;14.45;;;;;;;;;;4999331;28;25068;-74
2023/09/09 11:09:01;;;;;;;18.63;16.63;;;;;;;;;;5002947;28;25088;-74
2023/09/09 11:11:31;;;;;;;20.48;16.17;;;;;;;;;;4998290;28;25058;-74
2023/09/09 11:14:06;;;;;;;20.15;16.00;;;;;;;;;;4992586;28;25078;-74
2023/09/09 11:16:40;;;;;;;17.40;14.30;;;;;;;;;;4988985;28;25051;-73
2023/09/09 11:19:10;;;;;;;19.55;16.50;;;;;;;;;;5000995;28;25084;-76
2023/09/09 11:21:49;;;;;;;24.13;13.88;;;;;;;;;;4999547;28;25046;-75
2023/09/09 11:24:16;;;;;;;16.90;13.25;;;;;;;;;;4986002;28;25169;-76
2023/09/09 11:26:45;;;;;;;17.58;13.85;;;;;;;;;;4993319;28;25066;-73
2023/09/09 11:29:12;;;;;;;18.02;14.73;;;;;;;;;;4995693;28;25072;-76
2023/09/09 11:31:38;;;;;;;17.73;15.02;;;;;;;;;;4991892;28;25070;-73
2023/09/09 11:34:05;;;;;;;17.60;15.02;;;;;;;;;;4999513;28;25091;-75
2023/09/09 11:36:31;;;;;;;19.63;14.57;;;;;;;;;;4994074;28;25068;-75
2023/09/09 11:38:59;;;;;;;17.65;13.73;;;;;;;;;;4998937;28;25062;-72
2023/09/09 11:41:26;;;;;;;18.48;14.48;;;;;;;;;;4995723;28;25055;-72
2023/09/09 11:43:58;;;;;;;17.50;13.77;;;;;;;;;;4995062;28;25150;-76
2023/09/09 11:46:25;;;;;;;16.38;12.95;;;;;;;;;;4995777;28;25057;-75
2023/09/09 11:48:51;;;;;;;19.08;14.40;;;;;;;;;;4996425;28;25064;-74
2023/09/09 11:51:18;;;;;;;19.48;16.85;;;;;;;;;;4994183;28;25126;-77
2023/09/09 11:53:45;;;;;;;17.25;14.30;;;;;;;;;;4993103;28;25101;-74
2023/09/09 11:56:13;;;;;;;22.02;14.25;;;;;;;;;;4996741;28;25071;-73
2023/09/09 11:58:40;;;;;;;16.40;14.52;;;;;;;;;;4994360;28;25105;-74
2023/09/09 12:01:06;;;;;;;15.90;12.48;;;;;;;;;;4988369;28;25042;-74
2023/09/09 12:03:32;;;;;;;22.20;17.20;;;;;;;;;;4988936;28;25064;-75
2023/09/09 12:05:59;;;;;;;19.00;15.00;;;;;;;;;;4985090;28;25057;-73
2023/09/09 12:08:25;;;;;;;16.65;14.27;;;;;;;;;;4990926;28;25051;-73
2023/09/09 12:10:51;;;;;;;18.63;15.30;;;;;;;;;;4991951;28;25136;-74
2023/09/09 12:13:18;;;;;;;17.27;12.80;;;;;;;;;;4998627;28;25131;-76
2023/09/09 12:15:44;;;;;;;21.60;14.45;;;;;;;;;;4991704;28;25090;-74
2023/09/09 12:18:14;;;;;;;16.88;12.50;;;;;;;;;;4982691;28;25164;-74
2023/09/09 12:20:59;;;;;;;17.15;11.63;;;;;;;;;;4984636;28;25099;-71
2023/09/09 12:23:29;;;;;;;19.67;13.82;;;;;;;;;;4994072;28;24909;-74
2023/09/09 12:25:56;;;;;;;16.95;12.63;;;;;;;;;;4999008;28;25052;-72
2023/09/09 12:28:22;;;;;;;15.82;12.02;;;;;;;;;;4993961;28;25123;-74
2023/09/09 12:30:49;;;;;;;18.45;12.88;;;;;;;;;;4992002;28;25064;-76
2023/09/09 12:33:17;;;;;;;13.55;10.63;;;;;;;;;;4983123;28;25055;-75
2023/09/09 12:35:44;;;;;;;12.63;9.95;;;;;;;;;;4984120;28;25062;-75
2023/09/09 12:38:10;;;;;;;14.63;11.65;;;;;;;;;;4987553;28;25059;-74
2023/09/09 12:40:53;;;;;;;14.10;11.80;;;;;;;;;;4988764;28;25151;-76
2023/09/09 12:43:26;;;;;;;12.35;10.75;;;;;;;;;;4995730;28;25059;-74
2023/09/09 12:46:06;;;;;;;13.05;9.68;;;;;;;;;;4980080;28;25127;-74
2023/09/09 12:48:32;;;;;;;11.75;8.32;;;;;;;;;;5006789;28;25057;-72
2023/09/09 12:50:58;;;;;;;12.77;9.45;;;;;;;;;;5009150;28;25080;-74
2023/09/09 12:53:24;;;;;;;16.92;10.45;;;;;;;;;;5001687;28;25072;-75
2023/09/09 12:55:50;;;;;;;14.45;10.50;;;;;;;;;;5006308;28;25095;-75
2023/09/09 12:58:16;;;;;;;10.85;8.60;;;;;;;;;;5010013;28;25103;-76
2023/09/09 13:00:43;;;;;;;8.35;7.55;;;;;;;;;;5018947;28;25084;-74
2023/09/09 13:03:13;;;;;;;10.52;8.82;;;;;;;;;;5012375;28;25059;-74
2023/09/09 13:05:39;;;;;;;12.05;9.45;;;;;;;;;;5007815;28;25070;-73
2023/09/09 13:08:05;;;;;;;12.77;9.75;;;;;;;;;;5009353;28;25077;-75
2023/09/09 13:10:31;;;;;;;12.70;9.13;;;;;;;;;;5016373;28;25054;-74
2023/09/09 13:12:57;;;;;;;11.27;8.30;;;;;;;;;;5014473;28;25075;-74
2023/09/09 13:15:24;;;;;;;11.35;8.40;;;;;;;;;;5014425;28;25085;-75
2023/09/09 13:17:50;;;;;;;13.73;10.13;;;;;;;;;;5008468;28;25074;-75
2023/09/09 13:20:16;;;;;;;13.00;8.02;;;;;;;;;;5002474;28;25064;-74
2023/09/09 13:22:42;;;;;;;13.10;8.82;;;;;;;;;;4987581;28;29829;-74
2023/09/09 13:25:08;;;;;;;10.38;8.23;;;;;;;;;;4989020;28;25089;-74
2023/09/09 13:27:37;;;;;;;10.43;8.65;;;;;;;;;;4995030;28;25048;-74
2023/09/09 13:30:03;;;;;;;10.73;8.13;;;;;;;;;;5000463;28;25052;-74
2023/09/09 13:32:29;;;;;;;12.25;7.40;;;;;;;;;;5007879;28;25084;-76
2023/09/09 13:34:55;;;;;;;14.38;8.32;;;;;;;;;;5002724;28;25115;-75
2023/09/09 13:37:21;;;;;;;16.10;7.85;;;;;;;;;;4995728;28;25072;-73
2023/09/09 13:39:47;;;;;;;13.07;7.60;;;;;;;;;;4990026;28;25118;-72
2023/09/09 13:42:13;;;;;;;8.73;6.65;;;;;;;;;;4993197;28;25059;-75
2023/09/09 13:44:39;;;;;;;11.45;7.63;;;;;;;;;;4989698;28;25110;-72
2023/09/09 13:47:05;;;;;;;13.65;7.32;;;;;;;;;;4991355;28;25076;-74
2023/09/09 13:49:31;;;;;;;16.40;8.75;;;;;;;;;;4994373;28;25095;-75
2023/09/09 13:51:57;;;;;;;13.45;7.93;;;;;;;;;;4998856;28;25066;-73
2023/09/09 13:54:23;;;;;;;13.20;7.35;;;;;;;;;;5005686;28;25111;-73
2023/09/09 13:56:52;;;;;;;11.98;7.28;;;;;;;;;;4998088;28;25058;-72
2023/09/09 13:59:18;;;;;;;14.93;8.40;;;;;;;;;;4993250;28;25113;-73
2023/09/09 14:01:44;;;;;;;13.43;7.72;;;;;;;;;;4993093;28;25095;-75
2023/09/09 14:04:10;;;;;;;17.33;8.23;;;;;;;;;;4996033;28;25069;-75
2023/09/09 14:06:36;;;;;;;11.13;7.68;;;;;;;;;;4997343;28;25110;-73
2023/09/09 14:09:02;;;;;;;11.25;7.40;;;;;;;;;;5002833;28;25061;-73